createdAt,value
2022-08-04T00:02:51.548Z,22.18
2022-08-04T00:05:30.259Z,22.33
2022-08-04T00:08:10.758Z,22.32
2022-08-04T00:10:39.980Z,22.24
2022-08-04T00:13:08.828Z,22.11
2022-08-04T00:15:37.207Z,22.11
2022-08-04T00:18:07.797Z,22.18
2022-08-04T00:20:38.178Z,22.21
2022-08-04T00:23:06.727Z,22.18
2022-08-04T00:25:33.698Z,22.33
2022-08-04T00:28:01.198Z,22.02
2022-08-04T00:30:28.578Z,21.77
2022-08-04T00:32:57.265Z,22.05
2022-08-04T00:35:24.500Z,22.19
2022-08-04T00:37:52.428Z,22.17
2022-08-04T00:40:34.009Z,22.16
2022-08-04T00:43:11.207Z,21.83
2022-08-04T00:46:23.017Z,21.91
2022-08-04T00:49:03.134Z,21.91
2022-08-04T00:51:42.480Z,22.08
2022-08-04T00:54:20.758Z,22.17
2022-08-04T00:57:02.747Z,21.89
2022-08-04T01:00:05.660Z,22.06
2022-08-04T01:02:59.263Z,21.90
2022-08-04T01:05:38.361Z,21.82
2022-08-04T01:08:29.958Z,21.91
2022-08-04T01:11:06.699Z,21.89
2022-08-04T01:14:04.307Z,21.52
2022-08-04T01:16:35.379Z,21.45
2022-08-04T01:19:23.158Z,21.51
2022-08-04T01:22:26.285Z,21.66
2022-08-04T01:25:04.610Z,21.40
2022-08-04T01:28:10.778Z,21.50
2022-08-04T01:30:42.748Z,21.35
2022-08-04T01:33:14.458Z,21.52
2022-08-04T01:36:13.501Z,21.53
2022-08-04T01:38:41.177Z,21.44
2022-08-04T01:41:10.385Z,21.63
2022-08-04T01:43:43.637Z,21.50
2022-08-04T01:46:16.473Z,20.99
2022-08-04T01:48:46.108Z,21.43
2022-08-04T01:51:12.944Z,21.34
2022-08-04T01:53:42.407Z,21.15
2022-08-04T01:56:11.127Z,21.12
2022-08-04T01:58:39.687Z,21.08
2022-08-04T02:01:12.185Z,21.27
2022-08-04T02:04:18.089Z,21.00
2022-08-04T02:06:38.409Z,21.18
2022-08-04T02:09:15.398Z,21.16
2022-08-04T02:11:49.738Z,20.81
2022-08-04T02:14:43.307Z,20.66
2022-08-04T02:17:14.249Z,20.71
2022-08-04T02:20:02.647Z,20.83
2022-08-04T02:22:33.457Z,20.89
2022-08-04T02:25:11.229Z,20.63
2022-08-04T02:28:00.148Z,20.47
2022-08-04T02:30:34.438Z,20.69
2022-08-04T02:33:04.203Z,20.78
2022-08-04T02:35:35.927Z,20.65
2022-08-04T02:38:25.500Z,20.75
2022-08-04T02:40:55.464Z,20.53
2022-08-04T02:43:51.981Z,20.37
2022-08-04T02:46:18.040Z,20.28
2022-08-04T02:48:47.158Z,20.19
2022-08-04T02:51:16.806Z,20.18
2022-08-04T02:53:45.697Z,20.20
2022-08-04T02:56:15.707Z,20.25
2022-08-04T02:58:45.467Z,20.34
2022-08-04T03:01:12.283Z,20.44
2022-08-04T03:03:46.838Z,20.49
2022-08-04T03:06:48.837Z,20.58
2022-08-04T03:09:35.126Z,20.53
2022-08-04T03:12:17.518Z,20.45
2022-08-04T03:15:08.508Z,20.34
2022-08-04T03:17:59.709Z,20.20
2022-08-04T03:20:48.177Z,20.12
2022-08-04T03:23:17.930Z,20.29
2022-08-04T03:26:06.637Z,20.23
2022-08-04T03:29:00.809Z,20.32
2022-08-04T03:31:39.497Z,19.95
2022-08-04T03:34:41.419Z,20.23
2022-08-04T03:37:26.177Z,19.87
2022-08-04T03:40:10.891Z,19.69
2022-08-04T03:43:07.386Z,19.59
2022-08-04T03:46:02.078Z,19.71
2022-08-04T03:49:05.819Z,19.74
2022-08-04T03:52:23.818Z,19.68
2022-08-04T03:54:53.527Z,19.71
2022-08-04T03:57:20.214Z,19.81
2022-08-04T04:00:15.929Z,19.73
2022-08-04T04:03:28.122Z,19.76
2022-08-04T04:06:17.857Z,19.51
2022-08-04T04:08:58.583Z,20.12
2022-08-04T04:11:58.217Z,20.33
2022-08-04T04:14:52.936Z,20.97
2022-08-04T04:18:01.068Z,21.60
2022-08-04T04:20:33.898Z,22.05
2022-08-04T04:23:27.017Z,22.47
2022-08-04T04:26:45.437Z,23.02
2022-08-04T04:29:18.807Z,24.06
2022-08-04T04:32:06.555Z,24.80
2022-08-04T04:35:02.182Z,24.82
2022-08-04T04:37:59.478Z,24.57
2022-08-04T04:40:34.308Z,24.91
2022-08-04T04:43:13.907Z,25.13
2022-08-04T04:45:53.948Z,25.04
2022-08-04T04:48:48.687Z,25.71
2022-08-04T04:51:52.236Z,26.01
2022-08-04T04:54:44.962Z,26.50
2022-08-04T04:57:53.286Z,27.00
2022-08-04T05:00:13.825Z,27.90
2022-08-04T05:03:06.020Z,28.31
2022-08-04T05:06:15.341Z,28.43
2022-08-04T05:09:06.637Z,29.15
2022-08-04T05:14:30.984Z,29.69
2022-08-04T05:14:58.599Z,29.41
2022-08-04T05:17:35.515Z,29.80
2022-08-04T05:20:15.103Z,30.65
2022-08-04T05:23:09.375Z,30.50
2022-08-04T05:25:41.295Z,31.06
2022-08-04T05:28:20.930Z,32.00
2022-08-04T05:30:51.718Z,32.48
2022-08-04T05:33:29.267Z,32.90
2022-08-04T05:36:18.397Z,32.49
2022-08-04T05:38:51.530Z,32.34
2022-08-04T05:41:19.364Z,32.21
2022-08-04T05:43:48.857Z,31.90
2022-08-04T05:46:17.505Z,31.80
2022-08-04T05:48:46.032Z,32.26
2022-08-04T05:51:14.245Z,33.06
2022-08-04T05:53:44.476Z,33.65
2022-08-04T05:56:14.039Z,34.17
2022-08-04T05:58:41.978Z,34.56
2022-08-04T06:01:10.887Z,34.79
2022-08-04T06:03:40.375Z,34.86
2022-08-04T06:06:08.243Z,35.46
2022-08-04T06:08:35.106Z,35.72
2022-08-04T06:11:05.668Z,35.97
2022-08-04T06:13:48.919Z,36.11
2022-08-04T06:16:29.643Z,36.14
2022-08-04T06:20:00.314Z,36.74
2022-08-04T06:21:51.205Z,36.73
2022-08-04T06:24:52.935Z,37.04
2022-08-04T06:27:20.717Z,37.16
2022-08-04T06:29:51.811Z,37.05
2022-08-04T06:32:40.058Z,36.51
2022-08-04T06:35:10.263Z,36.84
2022-08-04T06:37:41.988Z,37.18
2022-08-04T06:40:30.633Z,37.37
2022-08-04T06:43:01.083Z,37.13
2022-08-04T06:45:28.026Z,37.31
2022-08-04T06:47:55.717Z,36.93
2022-08-04T06:51:25.476Z,36.03
2022-08-04T06:53:10.136Z,35.74
2022-08-04T06:55:38.257Z,35.91
2022-08-04T06:58:06.497Z,35.41
2022-08-04T07:00:35.315Z,35.42
2022-08-04T07:03:03.800Z,34.69
2022-08-04T07:05:31.531Z,35.43
2022-08-04T07:07:59.220Z,35.50
2022-08-04T07:10:30.606Z,35.67
2022-08-04T07:12:58.821Z,35.63
2022-08-04T07:15:27.064Z,36.01
2022-08-04T07:17:55.274Z,36.13
2022-08-04T07:20:35.200Z,36.34
2022-08-04T07:23:06.447Z,36.92
2022-08-04T07:26:11.980Z,36.42
2022-08-04T07:28:27.113Z,36.83
2022-08-04T07:30:55.657Z,36.74
2022-08-04T07:33:24.617Z,36.84
2022-08-04T07:36:09.527Z,37.18
2022-08-04T07:38:50.655Z,37.59
2022-08-04T07:41:39.509Z,37.95
2022-08-04T07:44:07.754Z,38.48
2022-08-04T07:46:35.296Z,38.23
2022-08-04T07:49:02.193Z,38.64
2022-08-04T07:51:35.493Z,39.15
2022-08-04T07:54:06.319Z,39.19
2022-08-04T07:56:39.433Z,38.99
2022-08-04T07:59:06.954Z,39.43
2022-08-04T08:01:37.254Z,39.65
2022-08-04T08:04:09.921Z,39.30
2022-08-04T08:06:42.720Z,39.22
2022-08-04T08:09:14.533Z,39.61
2022-08-04T08:12:37.958Z,40.17
2022-08-04T08:14:32.075Z,39.86
2022-08-04T08:17:02.909Z,40.08
2022-08-04T08:19:31.725Z,39.69
2022-08-04T08:22:00.963Z,39.40
2022-08-04T08:24:35.470Z,39.46
2022-08-04T08:27:06.089Z,39.71
2022-08-04T08:29:35.191Z,39.33
2022-08-04T08:32:08.172Z,40.16
2022-08-04T08:34:37.477Z,40.29
2022-08-04T08:37:07.676Z,39.42
2022-08-04T08:39:54.469Z,39.57
2022-08-04T08:42:40.999Z,39.33
2022-08-04T08:45:17.789Z,40.01
2022-08-04T08:48:06.174Z,40.32
2022-08-04T08:50:48.974Z,40.27
2022-08-04T08:53:45.296Z,39.48
2022-08-04T08:56:31.392Z,39.41
2022-08-04T08:59:27.717Z,39.70
2022-08-04T09:02:26.596Z,40.05
2022-08-04T09:05:19.616Z,40.55
2022-08-04T09:08:09.713Z,41.21
2022-08-04T09:10:48.096Z,41.06
2022-08-04T09:13:21.510Z,40.94
2022-08-04T09:15:52.477Z,40.85
2022-08-04T09:18:27.065Z,40.24
2022-08-04T09:21:06.537Z,39.86
2022-08-04T09:23:58.095Z,40.02
2022-08-04T09:26:35.020Z,39.87
2022-08-04T09:29:29.626Z,39.27
2022-08-04T09:32:39.307Z,39.91
2022-08-04T09:35:34.125Z,39.59
2022-08-04T09:38:06.214Z,40.77
2022-08-04T09:41:26.893Z,41.54
2022-08-04T09:44:50.584Z,41.27
2022-08-04T09:47:39.797Z,42.04
2022-08-04T09:50:30.157Z,42.53
2022-08-04T09:53:03.346Z,42.81
2022-08-04T09:55:54.100Z,43.14
2022-08-04T09:58:40.499Z,43.73
2022-08-04T10:01:11.880Z,44.18
2022-08-04T10:03:41.741Z,44.24
2022-08-04T10:06:26.907Z,44.57
2022-08-04T10:09:18.695Z,44.42
2022-08-04T10:12:09.499Z,44.75
2022-08-04T10:15:04.779Z,44.86
2022-08-04T10:17:52.182Z,45.02
2022-08-04T10:20:55.532Z,45.10
2022-08-04T10:23:55.287Z,45.17
2022-08-04T10:26:57.314Z,45.37
2022-08-04T10:29:31.336Z,45.10
2022-08-04T10:32:05.141Z,45.28
2022-08-04T10:34:39.938Z,45.47
2022-08-04T10:37:13.873Z,45.88
2022-08-04T10:40:24.215Z,45.68
2022-08-04T10:43:00.614Z,46.19
2022-08-04T10:45:35.190Z,46.08
2022-08-04T10:48:34.310Z,46.25
2022-08-04T10:51:04.854Z,46.46
2022-08-04T10:53:35.036Z,46.67
2022-08-04T10:56:09.880Z,46.75
2022-08-04T10:58:47.836Z,46.74
2022-08-04T11:01:50.982Z,46.98
2022-08-04T11:04:53.786Z,46.16
2022-08-04T11:07:22.369Z,46.29
2022-08-04T11:09:49.687Z,46.47
2022-08-04T11:12:25.699Z,46.43
2022-08-04T11:15:01.671Z,46.80
2022-08-04T11:17:36.007Z,46.80
2022-08-04T11:20:41.388Z,46.83
2022-08-04T11:23:14.295Z,46.88
2022-08-04T11:25:57.524Z,46.66
2022-08-04T11:28:46.220Z,46.72
2022-08-04T11:31:21.657Z,46.64
2022-08-04T11:34:11.743Z,46.38
2022-08-04T11:36:46.936Z,46.46
2022-08-04T11:39:29.660Z,46.65
2022-08-04T11:42:11.769Z,46.65
2022-08-04T11:44:44.534Z,44.86
2022-08-04T11:47:33.239Z,45.01
2022-08-04T11:50:13.182Z,44.97
2022-08-04T11:52:43.103Z,44.75
2022-08-04T11:55:14.216Z,44.24
2022-08-04T11:57:41.189Z,44.35
2022-08-04T12:00:12.904Z,44.36
2022-08-04T12:02:55.029Z,44.56
2022-08-04T12:05:37.181Z,44.72
2022-08-04T12:08:23.015Z,45.02
2022-08-04T12:11:11.637Z,45.32
2022-08-04T12:13:58.716Z,45.30
2022-08-04T12:16:37.823Z,45.51
2022-08-04T12:19:22.106Z,45.77
2022-08-04T12:22:00.357Z,45.76
2022-08-04T12:24:53.428Z,44.59
2022-08-04T12:28:01.467Z,42.30
2022-08-04T12:30:58.558Z,42.91
2022-08-04T12:33:41.376Z,42.96
2022-08-04T12:36:22.268Z,43.87
2022-08-04T12:38:59.381Z,44.32
2022-08-04T12:41:33.536Z,44.56
2022-08-04T12:44:10.877Z,44.94
2022-08-04T12:47:27.235Z,45.19
2022-08-04T12:49:59.010Z,45.24
2022-08-04T12:52:51.665Z,45.45
2022-08-04T12:55:15.742Z,45.51
2022-08-04T12:57:44.018Z,45.39
2022-08-04T13:00:11.506Z,45.43
2022-08-04T13:02:46.436Z,45.30
2022-08-04T13:05:16.880Z,45.54
2022-08-04T13:07:51.156Z,45.14
2022-08-04T13:10:21.182Z,44.16
2022-08-04T13:12:59.498Z,44.16
2022-08-04T13:15:28.671Z,44.40
2022-08-04T13:17:56.338Z,44.67
2022-08-04T13:20:35.947Z,44.96
2022-08-04T13:23:21.483Z,45.02
2022-08-04T13:26:42.334Z,45.08
2022-08-04T13:28:47.137Z,44.98
2022-08-04T13:31:20.228Z,45.20
2022-08-04T13:33:51.626Z,45.27
2022-08-04T13:36:20.039Z,45.25
2022-08-04T13:38:52.164Z,45.43
2022-08-04T13:41:20.547Z,45.26
2022-08-04T13:44:19.562Z,45.48
2022-08-04T13:46:50.444Z,45.58
2022-08-04T13:49:42.964Z,45.53
2022-08-04T13:52:11.231Z,45.60
2022-08-04T13:54:43.737Z,45.35
2022-08-04T13:57:19.596Z,45.16
2022-08-04T13:59:52.547Z,45.17
2022-08-04T14:02:34.808Z,45.28
2022-08-04T14:05:26.810Z,45.36
2022-08-04T14:08:00.855Z,45.19
2022-08-04T14:10:27.895Z,44.41
2022-08-04T14:12:55.848Z,44.37
2022-08-04T14:15:54.733Z,44.26
2022-08-04T14:18:32.875Z,43.98
2022-08-04T14:21:11.638Z,43.65
2022-08-04T14:23:47.182Z,43.51
2022-08-04T14:26:34.054Z,43.66
2022-08-04T14:29:35.955Z,43.54
2022-08-04T14:32:12.669Z,43.68
2022-08-04T14:34:44.747Z,43.76
2022-08-04T14:37:20.592Z,43.91
2022-08-04T14:40:17.853Z,43.84
2022-08-04T14:42:55.377Z,43.95
2022-08-04T14:45:32.013Z,44.02
2022-08-04T14:48:00.177Z,43.61
2022-08-04T14:50:39.026Z,43.52
2022-08-04T14:53:11.038Z,43.64
2022-08-04T14:55:39.989Z,43.62
2022-08-04T14:58:36.168Z,43.50
2022-08-04T15:00:58.073Z,43.19
2022-08-04T15:03:25.477Z,43.43
2022-08-04T15:06:00.093Z,43.38
2022-08-04T15:08:31.965Z,43.13
2022-08-04T15:11:03.569Z,43.13
2022-08-04T15:13:32.598Z,43.10
2022-08-04T15:16:08.081Z,43.14
2022-08-04T15:18:37.385Z,43.14
2022-08-04T15:21:06.039Z,43.01
2022-08-04T15:23:39.216Z,43.01
2022-08-04T15:26:10.707Z,42.90
2022-08-04T15:28:40.026Z,42.77
2022-08-04T15:32:01.772Z,42.51
2022-08-04T15:33:57.241Z,42.53
2022-08-04T15:36:57.192Z,42.46
2022-08-04T15:39:46.245Z,42.47
2022-08-04T15:42:24.806Z,42.31
2022-08-04T15:44:51.794Z,42.20
2022-08-04T15:47:18.980Z,42.05
2022-08-04T15:49:45.957Z,41.80
2022-08-04T15:52:18.899Z,41.70
2022-08-04T15:54:52.033Z,41.56
2022-08-04T15:57:57.549Z,41.32
2022-08-04T16:00:24.518Z,41.37
2022-08-04T16:02:51.824Z,41.27
2022-08-04T16:05:21.397Z,41.03
2022-08-04T16:07:59.088Z,40.91
2022-08-04T16:10:32.826Z,40.77
2022-08-04T16:13:08.370Z,40.66
2022-08-04T16:15:46.961Z,40.48
2022-08-04T16:18:39.747Z,40.33
2022-08-04T16:21:22.739Z,40.06
2022-08-04T16:23:56.904Z,39.70
2022-08-04T16:26:45.797Z,39.64
2022-08-04T16:29:41.678Z,39.55
2022-08-04T16:32:09.567Z,39.46
2022-08-04T16:34:58.971Z,39.29
2022-08-04T16:37:31.497Z,38.99
2022-08-04T16:40:34.570Z,38.90
2022-08-04T16:43:13.565Z,38.81
2022-08-04T16:45:51.495Z,38.62
2022-08-04T16:48:21.057Z,38.41
2022-08-04T16:51:14.606Z,38.23
2022-08-04T16:54:02.700Z,38.19
2022-08-04T16:56:34.173Z,38.02
2022-08-04T16:59:09.957Z,38.07
2022-08-04T17:01:38.452Z,38.06
2022-08-04T17:04:06.704Z,37.95
2022-08-04T17:06:38.277Z,37.67
2022-08-04T17:09:11.461Z,37.63
2022-08-04T17:11:38.417Z,37.50
2022-08-04T17:14:06.490Z,37.38
2022-08-04T17:16:36.495Z,37.36
2022-08-04T17:19:05.317Z,37.39
2022-08-04T17:21:34.819Z,37.21
2022-08-04T17:24:13.322Z,36.96
2022-08-04T17:26:53.946Z,36.83
2022-08-04T17:29:44.598Z,36.66
2022-08-04T17:32:21.926Z,36.50
2022-08-04T17:34:51.462Z,36.48
2022-08-04T17:37:40.086Z,36.16
2022-08-04T17:40:18.479Z,36.03
2022-08-04T17:44:04.223Z,35.96
2022-08-04T17:46:29.073Z,35.84
2022-08-04T17:49:17.103Z,35.80
2022-08-04T17:52:04.342Z,35.82
2022-08-04T17:54:38.717Z,35.55
2022-08-04T17:57:21.797Z,35.32
2022-08-04T17:59:59.306Z,35.33
2022-08-04T18:02:32.482Z,35.32
2022-08-04T18:05:07.067Z,35.28
2022-08-04T18:08:45.869Z,35.24
2022-08-04T18:10:57.072Z,35.08
2022-08-04T18:13:28.582Z,35.06
2022-08-04T18:16:04.124Z,34.92
2022-08-04T18:18:31.109Z,34.84
2022-08-04T18:20:59.525Z,34.72
2022-08-04T18:26:13.764Z,34.58
2022-08-04T18:28:41.395Z,34.41
2022-08-04T18:31:08.435Z,34.32
2022-08-04T18:33:39.803Z,34.20
2022-08-04T18:36:33.181Z,34.21
2022-08-04T18:39:13.419Z,34.04
2022-08-04T18:42:00.959Z,33.84
2022-08-04T18:44:51.891Z,33.80
2022-08-04T18:47:23.557Z,33.64
2022-08-04T18:50:58.552Z,33.50
2022-08-04T18:52:45.323Z,33.29
2022-08-04T18:55:33.991Z,33.15
2022-08-04T18:58:01.491Z,33.08
2022-08-04T19:00:28.847Z,32.98
2022-08-04T19:02:56.203Z,32.98
2022-08-04T19:05:24.396Z,32.33
2022-08-04T19:08:33.651Z,31.99
2022-08-04T19:10:54.176Z,31.82
2022-08-04T19:13:27.579Z,31.27
2022-08-04T19:15:54.835Z,31.12
2022-08-04T19:18:25.887Z,31.10
2022-08-04T19:20:55.391Z,31.08
2022-08-04T19:24:27.959Z,31.11
2022-08-04T19:28:57.009Z,31.11
2022-08-04T19:31:34.097Z,30.90
2022-08-04T19:34:05.074Z,30.98
2022-08-04T19:36:34.515Z,30.89
2022-08-04T19:39:04.672Z,30.76
2022-08-04T19:42:04.696Z,30.77
2022-08-04T19:44:25.089Z,30.88
2022-08-04T19:46:56.896Z,30.55
2022-08-04T19:50:05.026Z,30.65
2022-08-04T19:52:14.946Z,30.70
2022-08-04T19:55:01.242Z,30.61
2022-08-04T19:57:41.375Z,30.35
2022-08-04T20:00:10.166Z,30.21
2022-08-04T20:02:37.596Z,30.02
2022-08-04T20:07:52.281Z,29.85
2022-08-04T20:10:23.853Z,29.46
2022-08-04T20:12:55.592Z,29.72
2022-08-04T20:15:22.757Z,29.58
2022-08-04T20:18:14.339Z,29.60
2022-08-04T20:20:36.970Z,29.64
2022-08-04T20:23:07.349Z,29.58
2022-08-04T20:25:38.850Z,29.40
2022-08-04T20:28:07.427Z,29.27
2022-08-04T20:30:34.247Z,29.29
2022-08-04T20:33:01.696Z,29.24
2022-08-04T20:35:32.656Z,29.24
2022-08-04T20:38:33.692Z,29.12
2022-08-04T20:41:01.485Z,28.96
2022-08-04T20:43:28.409Z,28.97
2022-08-04T20:45:59.261Z,28.89
2022-08-04T20:48:33.615Z,28.73
2022-08-04T20:51:00.818Z,28.79
2022-08-04T20:56:19.179Z,28.57
2022-08-04T20:58:58.227Z,28.49
2022-08-04T21:01:29.593Z,28.70
2022-08-04T21:04:28.011Z,28.48
2022-08-04T21:06:57.439Z,28.27
2022-08-04T21:09:37.262Z,28.12
2022-08-04T21:12:07.159Z,28.09
2022-08-04T21:14:34.466Z,27.86
2022-08-04T21:19:50.314Z,27.74
2022-08-04T21:22:29.821Z,27.75
2022-08-04T21:25:00.388Z,27.49
2022-08-04T21:27:28.750Z,27.63
2022-08-04T21:29:55.527Z,27.29
2022-08-04T21:32:27.245Z,27.35
2022-08-04T21:34:55.117Z,27.42
2022-08-04T21:37:21.929Z,27.21
2022-08-04T21:39:59.077Z,27.39
2022-08-04T21:42:28.426Z,27.37
2022-08-04T21:44:58.179Z,27.37
2022-08-04T21:47:25.201Z,27.25
2022-08-04T21:49:56.788Z,27.30
2022-08-04T21:52:24.845Z,26.93
2022-08-04T21:54:54.487Z,26.98
2022-08-04T21:57:24.839Z,26.62
2022-08-04T21:59:52.315Z,26.80
2022-08-04T22:02:19.528Z,26.72
2022-08-04T22:04:48.458Z,26.44
2022-08-04T22:07:16.546Z,26.67
2022-08-04T22:10:02.440Z,26.54
2022-08-04T22:12:30.225Z,26.57
2022-08-04T22:14:59.592Z,26.53
2022-08-04T22:17:35.057Z,26.58
2022-08-04T22:20:03.037Z,26.54
2022-08-04T22:22:33.530Z,26.27
2022-08-04T22:25:13.102Z,26.29
2022-08-04T22:28:00.741Z,25.86
2022-08-04T22:30:36.661Z,26.08
2022-08-04T22:33:08.189Z,26.10
2022-08-04T22:35:49.045Z,25.67
2022-08-04T22:38:24.062Z,25.72
2022-08-04T22:41:01.378Z,25.64
2022-08-04T22:43:33.486Z,25.85
2022-08-04T22:46:03.874Z,25.73
2022-08-04T22:48:37.668Z,25.87
2022-08-04T22:51:07.500Z,25.80
2022-08-04T22:53:35.531Z,25.47
2022-08-04T22:56:09.832Z,25.78
2022-08-04T22:58:45.060Z,25.78
2022-08-04T23:01:14.964Z,25.42
2022-08-04T23:03:55.239Z,25.10
2022-08-04T23:06:24.776Z,24.80
2022-08-04T23:08:52.758Z,24.91
2022-08-04T23:11:19.688Z,25.04
2022-08-04T23:13:47.241Z,24.98
2022-08-04T23:16:15.857Z,24.74
2022-08-04T23:18:45.201Z,24.69
2022-08-04T23:21:16.716Z,24.69
2022-08-04T23:23:45.548Z,24.41
2022-08-04T23:26:27.748Z,24.48
2022-08-04T23:28:56.052Z,24.59
2022-08-04T23:31:23.486Z,24.59
2022-08-04T23:33:52.013Z,24.67
2022-08-04T23:36:29.637Z,24.74
2022-08-04T23:39:03.920Z,24.76
2022-08-04T23:41:51.027Z,24.70
2022-08-04T23:44:24.967Z,24.35
2022-08-04T23:47:03.677Z,24.48
2022-08-04T23:49:43.709Z,24.62
2022-08-04T23:52:23.467Z,24.64
2022-08-04T23:54:54.799Z,24.42
2022-08-04T23:57:22.226Z,24.29
2022-08-04T23:59:54.944Z,24.30
